< < Back
Terminal Aerodrome Forecast


Current Version              Previous Versions:   1  2  3  4  5  6  7  8  9  

Terminal Aerodrome Forecast

764
FTUS42 KTAE 121733
TAFABY
TAF
KABY 121733Z 1218/1318 27013G20KT P6SM BKN025
     FM122300 29008KT P6SM SKC
     FM131200 35010G18KT P6SM SKC=



Latest METAR

306
SAUS70 KWBC 122200 RRB
MTRABY
METAR KABY 122153Z 27014KT 10SM FEW065 22/08 A3009 RMK AO2 SLP187
T02170078


USA.gov is the U.S. government's official web portal to all federal, state and local government web resources and services.